KALMKSKX

Guest
Details From KALM - ALAMOGORDO WHITE SANDS RGNL
To KSKX - Taos Rgnl
Flight Number -
Tags generated
Created
Modified
Stats Distance 220 nm / 408 km
Max Altitude 27,200 ft / 8,291 m
Waypoints 4
Social Downloads 3
Likes 0
Share VATSIM

Download

Looking for another format? Having issues loading an existing format? Contact us
Advertisement - Login to hide

Notes

Basic altitude profile: - Ascent Rate: 1800ft/min - Ascent Speed: 140kts - Cruise Altitude: 20000ft - Cruise Speed: 230kts - Descent Rate: 800ft/min - Descent Speed: 150kts Options: - Use NATs: yes - Use PACOTS: yes - Use low airways: yes - Use high airways: yes

Route

KALM CNX V83 RUINS KSKX

ID Type Via Altitude Latitude Longitude Leg Dist Tot Dist Heading (true) Name
O KALM APT - 0 ft / 0 m 32.84184˚ -105.98801˚ - 0 nm - ALAMOGORDO WHITE SANDS RGNL
CNX VOR - 27,200 ft / 8,291 m 34.36703˚ -105.67800˚ 92 nm 92 nm 10° / 10° CORONA VORTAC
RUINS FIX V83 (AWY-LO) 18,000 ft / 5,486 m 34.85117˚ -105.85466˚ 30 nm 123 nm 343° / 343° -
O KSKX APT - 0 ft / 0 m 36.45818˚ -105.67243˚ 96 nm 220 nm 5° / 5° Taos Rgnl

Altitude Profile

Advertisement - Login to hide

Weather


0- 5 10 15 20 25 30 35+ Temperature / ° C

Clouds and Precipitation
Forecast for 2017-12-16 18:00 UTC. Updated 2 hours ago

Ground ~20,000 ft ~40,000 ft Winds

KALM

Details ICAO KALM (ALM)
Name ALAMOGORDO WHITE SANDS RGNL
Region United States
Timezone America/Denver (UTC-7.0)
Stats Elevation 4,200 ft / 1,280 m (AMSL)
Location 32.841845° -105.988007°
Runways 2
Magnetic Variation 8.049° E

METAR

KALM 161855Z AUTO 18006KT 10SM CLR 10/M06 A2990 RMK AO2

Decode

TAF

Not found

Departure Runways

ID Width Length Bearing (true) Bearing (mag) Surface Threshold Offset Overrun Length
03 150 ft / 46 m 7,007 ft / 2,136 m 45.42° 37.37° Asphalt 0 ft / 0 m 0 ft / 0 m
16 200 ft / 61 m 3,573 ft / 1,089 m 173.20° 165.15° Dirt 0 ft / 0 m 0 ft / 0 m
21 150 ft / 46 m 7,007 ft / 2,136 m 225.43° 217.38° Asphalt 0 ft / 0 m 0 ft / 0 m
34 200 ft / 61 m 3,573 ft / 1,089 m 353.20° 345.15° Dirt 0 ft / 0 m 0 ft / 0 m

KSKX

Details ICAO KSKX
Name Taos Rgnl
Region United States
Timezone America/Denver (UTC-7.0)
Stats Elevation 7,091 ft / 2,161 m (AMSL)
Location 36.458182° -105.672425°
Runways 1
Magnetic Variation 8.253° E

METAR

KSKX 161856Z AUTO 34004KT 10SM CLR 06/M14 A2982 RMK AO2 SLP113 T00561144 $

Decode

TAF

Not found

Destination Runways

ID Width Length Bearing (true) Bearing (mag) Surface Threshold Offset Overrun Length
04 75 ft / 23 m 5,794 ft / 1,766 m 56.03° 47.78° Asphalt 0 ft / 0 m 0 ft / 0 m
22 75 ft / 23 m 5,794 ft / 1,766 m 236.04° 227.79° Asphalt 0 ft / 0 m 0 ft / 0 m